Airfield :
LOGIN :

Register | Disclaimer

   EN    FR    IT 

 










Legend :    VFR   Marginal VFR   IFR   Intensive IFR   Very Intensive IFR
Visi :
Ceiling :
>= 8 km
>= 3000ft
5 to 8 km
1000 to 3000 ft
1500m to 5 km
500 to 1000 ft
800 to 1500m
200 to 500 ft
< 800m
< 200 ft
Symbols :   Thunderstorms  Fog  Heavy snow  Heavy precipitations  Wind > 20 kt
SIGMETs :     Misc.  Thunderstorms  Icing  Turbulence  Mountain Waves  Volcanic Ashes






- Airport Elevation : 49 ft
- IATA code : GLZ


EHGR - Gilze-Rijen Airbase

CURRENT METAR :
  • 251855Z AUTO 34008KT 290V050 9999 NCD 18/09 Q1034 BLU 36008KT CAVOK

EXPIRED METARs :
  • 251825Z AUTO 35009KT 300V040 9999 NCD 18/09 Q1034 BLU 36008KT CAVOK
  • 251755Z AUTO 33009KT 290V030 9999 FEW330 19/09 Q1034 BLU 36008KT CAVOK
  • 251725Z AUTO 33009KT 290V030 9999 NCD 20/09 Q1034 BLU 36008KT CAVOK
  • 251655Z AUTO 36008KT 270V020 9999 NCD 20/09 Q1034 BLU 36008KT CAVOK
  • 251625Z AUTO 35010KT 280V040 9999 NCD 21/09 Q1034 BLU

TAF TAF EHGR
Valid from the 25 at 17:00 until the 26 at 05:00 UTC


251618Z 2517/2605 34008KT 9999 FEW048
BECMG 2520/2522 VRB03KT CAVOK
BECMG 2522/2601 4500 BR MIFG
BECMG 2604/2605 09004KT CAVOK



MET'MAP, your aeronautical weather chart ! - Copyright ORBIFLY December 2007 - Disclaimer

ORBIFLY MET'MAP TEAM :

Programming & Development : Alexandra Zaïnal
Concept & original design : Baudouin d'Aumeries
Assistance for programming : Marc-Olivier Méhu
Technical & hardware support : Manuel Goepfert

Contact : metmap@orbifly.com




SOURCES & CREDITS :

   NOAA